sensor_id;sensor_type;location;lat;lon;timestamp;temperature;humidity
57390;DHT22;43217;52.694;6.214;2023-06-14T00:00:52;18.30;64.00
57390;DHT22;43217;52.694;6.214;2023-06-14T00:03:18;18.30;64.30
57390;DHT22;43217;52.694;6.214;2023-06-14T00:05:45;18.20;64.10
57390;DHT22;43217;52.694;6.214;2023-06-14T00:08:12;18.10;64.30
57390;DHT22;43217;52.694;6.214;2023-06-14T00:10:38;18.10;64.40
57390;DHT22;43217;52.694;6.214;2023-06-14T00:13:06;18.00;64.50
57390;DHT22;43217;52.694;6.214;2023-06-14T00:15:33;18.00;64.50
57390;DHT22;43217;52.694;6.214;2023-06-14T00:17:59;17.90;64.60
57390;DHT22;43217;52.694;6.214;2023-06-14T00:20:30;17.90;64.70
57390;DHT22;43217;52.694;6.214;2023-06-14T00:22:56;17.90;64.90
57390;DHT22;43217;52.694;6.214;2023-06-14T00:25:24;17.70;65.00
57390;DHT22;43217;52.694;6.214;2023-06-14T00:27:51;17.70;65.10
57390;DHT22;43217;52.694;6.214;2023-06-14T00:30:17;17.70;65.20
57390;DHT22;43217;52.694;6.214;2023-06-14T00:32:43;17.70;65.30
57390;DHT22;43217;52.694;6.214;2023-06-14T00:35:10;17.70;65.30
57390;DHT22;43217;52.694;6.214;2023-06-14T00:37:36;17.60;65.30
57390;DHT22;43217;52.694;6.214;2023-06-14T00:40:02;17.60;65.40
57390;DHT22;43217;52.694;6.214;2023-06-14T00:42:29;17.50;65.50
57390;DHT22;43217;52.694;6.214;2023-06-14T00:44:55;17.50;65.60
57390;DHT22;43217;52.694;6.214;2023-06-14T00:47:21;17.40;65.80
57390;DHT22;43217;52.694;6.214;2023-06-14T00:49:47;17.40;65.80
57390;DHT22;43217;52.694;6.214;2023-06-14T00:52:14;17.40;65.90
57390;DHT22;43217;52.694;6.214;2023-06-14T00:54:40;17.30;66.30
57390;DHT22;43217;52.694;6.214;2023-06-14T00:57:07;17.20;66.40
57390;DHT22;43217;52.694;6.214;2023-06-14T00:59:35;17.10;66.50
57390;DHT22;43217;52.694;6.214;2023-06-14T01:02:03;17.10;66.70
57390;DHT22;43217;52.694;6.214;2023-06-14T01:04:29;17.10;66.80
57390;DHT22;43217;52.694;6.214;2023-06-14T01:15:12;16.90;67.40
57390;DHT22;43217;52.694;6.214;2023-06-14T01:17:39;16.90;67.80
57390;DHT22;43217;52.694;6.214;2023-06-14T01:20:10;16.90;68.00
57390;DHT22;43217;52.694;6.214;2023-06-14T01:22:51;16.70;68.10
57390;DHT22;43217;52.694;6.214;2023-06-14T01:25:22;16.70;68.40
57390;DHT22;43217;52.694;6.214;2023-06-14T01:28:15;16.70;68.60
57390;DHT22;43217;52.694;6.214;2023-06-14T01:30:44;16.70;69.20
57390;DHT22;43217;52.694;6.214;2023-06-14T01:33:13;16.60;69.10
57390;DHT22;43217;52.694;6.214;2023-06-14T01:35:40;16.60;69.40
57390;DHT22;43217;52.694;6.214;2023-06-14T01:38:06;16.60;69.70
57390;DHT22;43217;52.694;6.214;2023-06-14T01:40:34;16.50;69.90
57390;DHT22;43217;52.694;6.214;2023-06-14T01:43:01;16.40;70.20
57390;DHT22;43217;52.694;6.214;2023-06-14T01:45:27;16.40;70.50
57390;DHT22;43217;52.694;6.214;2023-06-14T01:47:55;16.40;70.60
57390;DHT22;43217;52.694;6.214;2023-06-14T01:50:21;16.40;70.60
57390;DHT22;43217;52.694;6.214;2023-06-14T01:52:46;16.40;70.60
57390;DHT22;43217;52.694;6.214;2023-06-14T01:55:12;16.30;71.10
57390;DHT22;43217;52.694;6.214;2023-06-14T01:57:38;16.30;71.20
57390;DHT22;43217;52.694;6.214;2023-06-14T02:00:04;16.20;71.50
57390;DHT22;43217;52.694;6.214;2023-06-14T02:02:33;16.20;71.60
57390;DHT22;43217;52.694;6.214;2023-06-14T02:04:59;16.20;72.00
57390;DHT22;43217;52.694;6.214;2023-06-14T02:07:24;16.20;72.10
57390;DHT22;43217;52.694;6.214;2023-06-14T02:09:51;16.10;72.40
57390;DHT22;43217;52.694;6.214;2023-06-14T02:12:17;16.00;72.90
57390;DHT22;43217;52.694;6.214;2023-06-14T02:14:43;16.00;73.20
57390;DHT22;43217;52.694;6.214;2023-06-14T02:17:10;16.00;73.30
57390;DHT22;43217;52.694;6.214;2023-06-14T02:19:36;16.00;73.40
57390;DHT22;43217;52.694;6.214;2023-06-14T02:22:01;16.00;73.80
57390;DHT22;43217;52.694;6.214;2023-06-14T02:24:27;16.00;73.80
57390;DHT22;43217;52.694;6.214;2023-06-14T02:26:52;16.00;74.30
57390;DHT22;43217;52.694;6.214;2023-06-14T02:29:18;15.90;74.70
57390;DHT22;43217;52.694;6.214;2023-06-14T02:31:43;15.90;74.90
57390;DHT22;43217;52.694;6.214;2023-06-14T02:34:09;15.90;75.20
57390;DHT22;43217;52.694;6.214;2023-06-14T02:36:35;15.90;75.50
57390;DHT22;43217;52.694;6.214;2023-06-14T02:39:06;15.80;75.90
57390;DHT22;43217;52.694;6.214;2023-06-14T02:41:31;15.80;76.00
57390;DHT22;43217;52.694;6.214;2023-06-14T02:43:57;15.80;76.60
57390;DHT22;43217;52.694;6.214;2023-06-14T02:46:24;15.80;76.90
57390;DHT22;43217;52.694;6.214;2023-06-14T02:48:49;15.70;77.30
57390;DHT22;43217;52.694;6.214;2023-06-14T02:51:15;15.70;77.40
57390;DHT22;43217;52.694;6.214;2023-06-14T02:53:41;15.70;77.70
57390;DHT22;43217;52.694;6.214;2023-06-14T02:56:06;15.70;78.40
57390;DHT22;43217;52.694;6.214;2023-06-14T02:58:32;15.60;78.60
57390;DHT22;43217;52.694;6.214;2023-06-14T03:00:58;15.60;79.20
57390;DHT22;43217;52.694;6.214;2023-06-14T03:03:29;15.60;79.60
57390;DHT22;43217;52.694;6.214;2023-06-14T03:05:55;15.50;79.80
57390;DHT22;43217;52.694;6.214;2023-06-14T03:08:21;15.50;80.60
57390;DHT22;43217;52.694;6.214;2023-06-14T03:10:52;15.40;81.30
57390;DHT22;43217;52.694;6.214;2023-06-14T03:13:18;15.40;81.60
57390;DHT22;43217;52.694;6.214;2023-06-14T03:15:46;15.40;81.90
57390;DHT22;43217;52.694;6.214;2023-06-14T03:18:13;15.40;82.40
57390;DHT22;43217;52.694;6.214;2023-06-14T03:20:40;15.40;82.80
57390;DHT22;43217;52.694;6.214;2023-06-14T03:23:06;15.40;83.00
57390;DHT22;43217;52.694;6.214;2023-06-14T03:25:32;15.40;83.90
57390;DHT22;43217;52.694;6.214;2023-06-14T03:28:01;15.40;84.00
57390;DHT22;43217;52.694;6.214;2023-06-14T03:30:27;15.40;84.50
57390;DHT22;43217;52.694;6.214;2023-06-14T03:32:52;15.30;85.30
57390;DHT22;43217;52.694;6.214;2023-06-14T03:35:19;15.30;85.70
57390;DHT22;43217;52.694;6.214;2023-06-14T03:37:45;15.30;86.50
57390;DHT22;43217;52.694;6.214;2023-06-14T03:40:13;15.30;86.70
57390;DHT22;43217;52.694;6.214;2023-06-14T03:42:39;15.30;86.90
57390;DHT22;43217;52.694;6.214;2023-06-14T03:45:05;15.30;87.20
57390;DHT22;43217;52.694;6.214;2023-06-14T03:47:32;15.30;87.70
57390;DHT22;43217;52.694;6.214;2023-06-14T03:49:57;15.30;87.90
57390;DHT22;43217;52.694;6.214;2023-06-14T03:52:23;15.30;88.40
57390;DHT22;43217;52.694;6.214;2023-06-14T03:54:49;15.30;88.60
57390;DHT22;43217;52.694;6.214;2023-06-14T03:57:15;15.30;89.00
57390;DHT22;43217;52.694;6.214;2023-06-14T03:59:40;15.30;89.90
57390;DHT22;43217;52.694;6.214;2023-06-14T04:02:07;15.30;90.00
57390;DHT22;43217;52.694;6.214;2023-06-14T04:04:32;15.30;90.10
57390;DHT22;43217;52.694;6.214;2023-06-14T04:06:58;15.40;90.30
57390;DHT22;43217;52.694;6.214;2023-06-14T04:09:26;15.30;90.40
57390;DHT22;43217;52.694;6.214;2023-06-14T04:11:52;15.30;90.80
57390;DHT22;43217;52.694;6.214;2023-06-14T04:14:19;15.30;91.10
57390;DHT22;43217;52.694;6.214;2023-06-14T04:16:46;15.40;91.20
57390;DHT22;43217;52.694;6.214;2023-06-14T04:19:11;15.40;91.30
57390;DHT22;43217;52.694;6.214;2023-06-14T04:21:37;15.40;91.50
57390;DHT22;43217;52.694;6.214;2023-06-14T04:24:03;15.40;91.60
57390;DHT22;43217;52.694;6.214;2023-06-14T04:26:29;15.40;91.80
57390;DHT22;43217;52.694;6.214;2023-06-14T04:28:55;15.40;92.00
57390;DHT22;43217;52.694;6.214;2023-06-14T04:31:22;15.40;92.20
57390;DHT22;43217;52.694;6.214;2023-06-14T04:33:51;15.50;92.30
57390;DHT22;43217;52.694;6.214;2023-06-14T04:36:19;15.60;92.10
57390;DHT22;43217;52.694;6.214;2023-06-14T04:38:45;15.70;92.20
57390;DHT22;43217;52.694;6.214;2023-06-14T04:41:12;15.70;92.20
57390;DHT22;43217;52.694;6.214;2023-06-14T04:43:38;15.80;92.30
57390;DHT22;43217;52.694;6.214;2023-06-14T04:46:07;15.90;92.40
57390;DHT22;43217;52.694;6.214;2023-06-14T04:48:37;15.90;92.40
57390;DHT22;43217;52.694;6.214;2023-06-14T04:51:05;15.90;92.40
57390;DHT22;43217;52.694;6.214;2023-06-14T04:53:31;15.90;92.60
57390;DHT22;43217;52.694;6.214;2023-06-14T04:55:56;16.00;92.70
57390;DHT22;43217;52.694;6.214;2023-06-14T04:58:22;16.00;92.50
57390;DHT22;43217;52.694;6.214;2023-06-14T05:00:47;16.00;92.70
57390;DHT22;43217;52.694;6.214;2023-06-14T05:03:13;16.10;92.80
57390;DHT22;43217;52.694;6.214;2023-06-14T05:05:40;16.20;92.90
57390;DHT22;43217;52.694;6.214;2023-06-14T05:08:06;16.40;92.50
57390;DHT22;43217;52.694;6.214;2023-06-14T05:10:32;16.70;92.00
57390;DHT22;43217;52.694;6.214;2023-06-14T05:13:00;16.70;91.70
57390;DHT22;43217;52.694;6.214;2023-06-14T05:15:26;16.70;91.70
57390;DHT22;43217;52.694;6.214;2023-06-14T05:17:52;16.70;91.80
57390;DHT22;43217;52.694;6.214;2023-06-14T05:20:21;16.70;92.10
57390;DHT22;43217;52.694;6.214;2023-06-14T05:22:52;16.70;92.00
57390;DHT22;43217;52.694;6.214;2023-06-14T05:25:19;16.90;91.90
57390;DHT22;43217;52.694;6.214;2023-06-14T05:27:45;16.90;91.70
57390;DHT22;43217;52.694;6.214;2023-06-14T05:30:11;17.00;91.60
57390;DHT22;43217;52.694;6.214;2023-06-14T05:32:37;17.00;91.60
57390;DHT22;43217;52.694;6.214;2023-06-14T05:35:03;17.10;91.60
57390;DHT22;43217;52.694;6.214;2023-06-14T05:37:29;17.10;91.40
57390;DHT22;43217;52.694;6.214;2023-06-14T05:39:56;17.20;91.30
57390;DHT22;43217;52.694;6.214;2023-06-14T05:42:22;17.30;91.20
57390;DHT22;43217;52.694;6.214;2023-06-14T05:44:47;17.30;91.00
57390;DHT22;43217;52.694;6.214;2023-06-14T05:47:13;17.40;90.80
57390;DHT22;43217;52.694;6.214;2023-06-14T05:49:38;17.50;90.30
57390;DHT22;43217;52.694;6.214;2023-06-14T05:52:04;17.60;90.20
57390;DHT22;43217;52.694;6.214;2023-06-14T05:54:30;17.70;90.10
57390;DHT22;43217;52.694;6.214;2023-06-14T05:56:56;17.70;90.00
57390;DHT22;43217;52.694;6.214;2023-06-14T05:59:27;17.70;90.30
57390;DHT22;43217;52.694;6.214;2023-06-14T06:01:52;17.80;89.70
57390;DHT22;43217;52.694;6.214;2023-06-14T06:04:18;17.90;89.20
57390;DHT22;43217;52.694;6.214;2023-06-14T06:06:44;18.00;89.20
57390;DHT22;43217;52.694;6.214;2023-06-14T06:09:10;18.10;88.40
57390;DHT22;43217;52.694;6.214;2023-06-14T06:11:36;18.10;87.70
57390;DHT22;43217;52.694;6.214;2023-06-14T06:14:01;18.20;87.60
57390;DHT22;43217;52.694;6.214;2023-06-14T06:16:27;18.20;87.60
57390;DHT22;43217;52.694;6.214;2023-06-14T06:18:53;18.30;87.10
57390;DHT22;43217;52.694;6.214;2023-06-14T06:21:18;18.40;86.70
57390;DHT22;43217;52.694;6.214;2023-06-14T06:23:44;18.50;85.60
57390;DHT22;43217;52.694;6.214;2023-06-14T06:26:10;18.50;85.70
57390;DHT22;43217;52.694;6.214;2023-06-14T06:28:35;18.60;85.20
57390;DHT22;43217;52.694;6.214;2023-06-14T06:31:01;18.70;85.20
57390;DHT22;43217;52.694;6.214;2023-06-14T06:33:27;18.80;84.70
57390;DHT22;43217;52.694;6.214;2023-06-14T06:35:52;19.00;84.30
57390;DHT22;43217;52.694;6.214;2023-06-14T06:38:18;19.40;84.20
57390;DHT22;43217;52.694;6.214;2023-06-14T06:40:44;20.00;82.40
57390;DHT22;43217;52.694;6.214;2023-06-14T06:43:10;20.40;81.60
57390;DHT22;43217;52.694;6.214;2023-06-14T06:45:39;20.80;80.70
57390;DHT22;43217;52.694;6.214;2023-06-14T06:48:05;21.30;79.90
57390;DHT22;43217;52.694;6.214;2023-06-14T06:50:31;22.00;78.10
57390;DHT22;43217;52.694;6.214;2023-06-14T06:52:57;22.70;75.00
57390;DHT22;43217;52.694;6.214;2023-06-14T06:55:23;23.20;72.10
57390;DHT22;43217;52.694;6.214;2023-06-14T06:57:49;23.90;71.10
57390;DHT22;43217;52.694;6.214;2023-06-14T07:00:15;24.80;69.10
57390;DHT22;43217;52.694;6.214;2023-06-14T07:02:42;25.80;66.60
57390;DHT22;43217;52.694;6.214;2023-06-14T07:05:07;26.20;64.40
57390;DHT22;43217;52.694;6.214;2023-06-14T07:07:34;26.60;63.30
57390;DHT22;43217;52.694;6.214;2023-06-14T07:09:59;26.70;60.80
57390;DHT22;43217;52.694;6.214;2023-06-14T07:12:26;26.60;59.60
57390;DHT22;43217;52.694;6.214;2023-06-14T07:14:51;26.50;59.20
57390;DHT22;43217;52.694;6.214;2023-06-14T07:17:17;26.60;58.90
57390;DHT22;43217;52.694;6.214;2023-06-14T07:19:42;26.80;58.80
57390;DHT22;43217;52.694;6.214;2023-06-14T07:22:08;27.00;58.10
57390;DHT22;43217;52.694;6.214;2023-06-14T07:24:34;26.90;57.80
57390;DHT22;43217;52.694;6.214;2023-06-14T07:27:03;26.80;56.90
57390;DHT22;43217;52.694;6.214;2023-06-14T07:29:29;26.70;57.10
57390;DHT22;43217;52.694;6.214;2023-06-14T07:31:55;27.00;56.90
57390;DHT22;43217;52.694;6.214;2023-06-14T07:34:20;27.50;56.60
57390;DHT22;43217;52.694;6.214;2023-06-14T07:36:46;27.60;56.50
57390;DHT22;43217;52.694;6.214;2023-06-14T07:39:13;27.60;54.30
57390;DHT22;43217;52.694;6.214;2023-06-14T07:41:39;27.60;54.40
57390;DHT22;43217;52.694;6.214;2023-06-14T07:44:04;27.50;54.60
57390;DHT22;43217;52.694;6.214;2023-06-14T07:46:30;27.60;54.60
57390;DHT22;43217;52.694;6.214;2023-06-14T07:48:55;27.90;54.40
57390;DHT22;43217;52.694;6.214;2023-06-14T07:51:21;28.00;53.40
57390;DHT22;43217;52.694;6.214;2023-06-14T07:53:48;28.00;53.20
57390;DHT22;43217;52.694;6.214;2023-06-14T07:56:14;28.20;53.30
57390;DHT22;43217;52.694;6.214;2023-06-14T07:58:40;28.30;52.60
57390;DHT22;43217;52.694;6.214;2023-06-14T08:01:06;28.30;52.40
57390;DHT22;43217;52.694;6.214;2023-06-14T08:03:33;28.40;51.70
57390;DHT22;43217;52.694;6.214;2023-06-14T08:06:00;28.30;51.50
57390;DHT22;43217;52.694;6.214;2023-06-14T08:08:26;28.20;52.30
57390;DHT22;43217;52.694;6.214;2023-06-14T08:10:52;28.20;51.70
57390;DHT22;43217;52.694;6.214;2023-06-14T08:13:18;28.30;51.60
57390;DHT22;43217;52.694;6.214;2023-06-14T08:15:44;28.40;51.20
57390;DHT22;43217;52.694;6.214;2023-06-14T08:18:10;28.30;50.90
57390;DHT22;43217;52.694;6.214;2023-06-14T08:20:35;28.30;50.60
57390;DHT22;43217;52.694;6.214;2023-06-14T08:23:02;28.40;51.00
57390;DHT22;43217;52.694;6.214;2023-06-14T08:25:30;28.50;50.80
57390;DHT22;43217;52.694;6.214;2023-06-14T08:27:57;28.70;51.00
57390;DHT22;43217;52.694;6.214;2023-06-14T08:30:22;28.90;50.50
57390;DHT22;43217;52.694;6.214;2023-06-14T08:32:48;28.90;49.90
57390;DHT22;43217;52.694;6.214;2023-06-14T08:35:14;28.50;49.60
57390;DHT22;43217;52.694;6.214;2023-06-14T08:37:40;28.50;49.80
57390;DHT22;43217;52.694;6.214;2023-06-14T08:40:20;28.80;49.80
57390;DHT22;43217;52.694;6.214;2023-06-14T08:42:51;29.10;49.50
57390;DHT22;43217;52.694;6.214;2023-06-14T08:45:22;28.50;47.70
57390;DHT22;43217;52.694;6.214;2023-06-14T08:47:50;28.30;48.00
57390;DHT22;43217;52.694;6.214;2023-06-14T08:50:24;28.20;48.20
57390;DHT22;43217;52.694;6.214;2023-06-14T08:52:57;28.30;48.40
57390;DHT22;43217;52.694;6.214;2023-06-14T08:55:27;28.10;47.90
57390;DHT22;43217;52.694;6.214;2023-06-14T08:57:57;28.00;48.50
57390;DHT22;43217;52.694;6.214;2023-06-14T09:00:24;28.20;48.70
57390;DHT22;43217;52.694;6.214;2023-06-14T09:02:51;28.40;48.40
57390;DHT22;43217;52.694;6.214;2023-06-14T09:05:26;28.40;48.50
57390;DHT22;43217;52.694;6.214;2023-06-14T09:07:53;28.50;48.50
57390;DHT22;43217;52.694;6.214;2023-06-14T09:10:21;28.50;48.10
57390;DHT22;43217;52.694;6.214;2023-06-14T09:12:47;28.30;48.20
57390;DHT22;43217;52.694;6.214;2023-06-14T09:15:12;28.20;48.80
57390;DHT22;43217;52.694;6.214;2023-06-14T09:17:39;28.10;47.70
57390;DHT22;43217;52.694;6.214;2023-06-14T09:20:07;27.80;47.70
57390;DHT22;43217;52.694;6.214;2023-06-14T09:22:39;27.80;48.20
57390;DHT22;43217;52.694;6.214;2023-06-14T09:25:05;27.90;48.40
57390;DHT22;43217;52.694;6.214;2023-06-14T09:27:31;28.00;48.10
57390;DHT22;43217;52.694;6.214;2023-06-14T09:29:57;28.10;48.00
57390;DHT22;43217;52.694;6.214;2023-06-14T09:32:23;28.30;48.10
57390;DHT22;43217;52.694;6.214;2023-06-14T09:34:50;28.30;47.50
57390;DHT22;43217;52.694;6.214;2023-06-14T09:37:29;28.20;47.20
57390;DHT22;43217;52.694;6.214;2023-06-14T09:39:55;28.20;47.10
57390;DHT22;43217;52.694;6.214;2023-06-14T09:42:21;28.30;46.80
57390;DHT22;43217;52.694;6.214;2023-06-14T09:44:48;28.40;46.80
57390;DHT22;43217;52.694;6.214;2023-06-14T09:47:16;28.40;46.60
57390;DHT22;43217;52.694;6.214;2023-06-14T09:49:42;28.20;46.60
57390;DHT22;43217;52.694;6.214;2023-06-14T09:52:14;28.10;46.70
57390;DHT22;43217;52.694;6.214;2023-06-14T09:54:41;28.20;46.70
57390;DHT22;43217;52.694;6.214;2023-06-14T09:57:17;28.20;46.90
57390;DHT22;43217;52.694;6.214;2023-06-14T09:59:53;28.30;46.20
57390;DHT22;43217;52.694;6.214;2023-06-14T10:02:25;28.30;45.60
57390;DHT22;43217;52.694;6.214;2023-06-14T10:05:07;28.20;45.60
57390;DHT22;43217;52.694;6.214;2023-06-14T10:07:58;28.20;45.40
57390;DHT22;43217;52.694;6.214;2023-06-14T10:10:25;28.40;45.60
57390;DHT22;43217;52.694;6.214;2023-06-14T10:12:51;28.30;45.60
57390;DHT22;43217;52.694;6.214;2023-06-14T10:18:31;28.60;45.40
57390;DHT22;43217;52.694;6.214;2023-06-14T10:21:22;28.40;45.10
57390;DHT22;43217;52.694;6.214;2023-06-14T10:23:49;28.00;45.20
57390;DHT22;43217;52.694;6.214;2023-06-14T10:26:23;27.70;45.20
57390;DHT22;43217;52.694;6.214;2023-06-14T10:29:08;27.70;45.20
57390;DHT22;43217;52.694;6.214;2023-06-14T10:34:08;27.40;46.00
57390;DHT22;43217;52.694;6.214;2023-06-14T10:36:35;27.40;46.40
57390;DHT22;43217;52.694;6.214;2023-06-14T10:39:07;27.40;47.00
57390;DHT22;43217;52.694;6.214;2023-06-14T10:41:38;27.60;46.30
57390;DHT22;43217;52.694;6.214;2023-06-14T10:46:40;27.60;45.80
57390;DHT22;43217;52.694;6.214;2023-06-14T10:49:07;27.60;45.20
57390;DHT22;43217;52.694;6.214;2023-06-14T10:51:39;27.50;45.20
57390;DHT22;43217;52.694;6.214;2023-06-14T10:54:13;27.60;45.50
57390;DHT22;43217;52.694;6.214;2023-06-14T10:56:46;27.60;45.40
57390;DHT22;43217;52.694;6.214;2023-06-14T10:59:12;27.60;44.90
57390;DHT22;43217;52.694;6.214;2023-06-14T11:01:41;27.50;44.40
57390;DHT22;43217;52.694;6.214;2023-06-14T11:04:12;27.50;44.90
57390;DHT22;43217;52.694;6.214;2023-06-14T11:06:49;27.30;44.00
57390;DHT22;43217;52.694;6.214;2023-06-14T11:10:17;27.30;44.30
57390;DHT22;43217;52.694;6.214;2023-06-14T11:12:24;27.20;44.90
57390;DHT22;43217;52.694;6.214;2023-06-14T11:14:51;27.10;45.10
57390;DHT22;43217;52.694;6.214;2023-06-14T11:17:17;27.20;45.40
57390;DHT22;43217;52.694;6.214;2023-06-14T11:19:44;27.30;45.20
57390;DHT22;43217;52.694;6.214;2023-06-14T11:22:10;27.30;45.10
57390;DHT22;43217;52.694;6.214;2023-06-14T11:24:35;27.30;45.20
57390;DHT22;43217;52.694;6.214;2023-06-14T11:27:01;27.40;45.70
57390;DHT22;43217;52.694;6.214;2023-06-14T11:29:29;27.40;45.10
57390;DHT22;43217;52.694;6.214;2023-06-14T11:31:55;27.40;44.30
57390;DHT22;43217;52.694;6.214;2023-06-14T11:34:20;27.40;44.80
57390;DHT22;43217;52.694;6.214;2023-06-14T11:36:47;27.20;44.90
57390;DHT22;43217;52.694;6.214;2023-06-14T11:39:13;27.20;45.20
57390;DHT22;43217;52.694;6.214;2023-06-14T11:41:45;27.30;44.40
57390;DHT22;43217;52.694;6.214;2023-06-14T11:44:11;27.20;44.20
57390;DHT22;43217;52.694;6.214;2023-06-14T11:46:37;27.10;44.60
57390;DHT22;43217;52.694;6.214;2023-06-14T11:49:04;26.90;43.70
57390;DHT22;43217;52.694;6.214;2023-06-14T11:51:32;26.80;43.70
57390;DHT22;43217;52.694;6.214;2023-06-14T11:54:02;26.50;44.10
57390;DHT22;43217;52.694;6.214;2023-06-14T11:56:29;26.50;44.80
57390;DHT22;43217;52.694;6.214;2023-06-14T11:58:56;26.50;45.50
57390;DHT22;43217;52.694;6.214;2023-06-14T12:01:22;26.40;44.80
57390;DHT22;43217;52.694;6.214;2023-06-14T12:03:49;26.40;44.90
57390;DHT22;43217;52.694;6.214;2023-06-14T12:06:15;26.50;45.10
57390;DHT22;43217;52.694;6.214;2023-06-14T12:08:43;26.30;45.20
57390;DHT22;43217;52.694;6.214;2023-06-14T12:11:12;26.30;45.80
57390;DHT22;43217;52.694;6.214;2023-06-14T12:13:42;26.40;45.90
57390;DHT22;43217;52.694;6.214;2023-06-14T12:16:09;26.50;45.10
57390;DHT22;43217;52.694;6.214;2023-06-14T12:18:39;26.30;45.20
57390;DHT22;43217;52.694;6.214;2023-06-14T12:21:09;26.20;46.10
57390;DHT22;43217;52.694;6.214;2023-06-14T12:23:46;26.10;46.80
57390;DHT22;43217;52.694;6.214;2023-06-14T12:26:13;26.20;47.20
57390;DHT22;43217;52.694;6.214;2023-06-14T12:28:40;26.30;47.00
57390;DHT22;43217;52.694;6.214;2023-06-14T12:31:07;26.40;46.30
57390;DHT22;43217;52.694;6.214;2023-06-14T12:33:33;26.50;46.40
57390;DHT22;43217;52.694;6.214;2023-06-14T12:35:59;26.30;46.70
57390;DHT22;43217;52.694;6.214;2023-06-14T12:38:25;26.20;46.70
57390;DHT22;43217;52.694;6.214;2023-06-14T12:40:50;26.20;46.60
57390;DHT22;43217;52.694;6.214;2023-06-14T12:43:17;26.20;46.90
57390;DHT22;43217;52.694;6.214;2023-06-14T12:45:43;26.20;47.30
57390;DHT22;43217;52.694;6.214;2023-06-14T12:48:09;26.20;47.50
57390;DHT22;43217;52.694;6.214;2023-06-14T12:50:35;26.30;47.60
57390;DHT22;43217;52.694;6.214;2023-06-14T12:53:00;26.30;47.40
57390;DHT22;43217;52.694;6.214;2023-06-14T12:55:26;26.50;47.90
57390;DHT22;43217;52.694;6.214;2023-06-14T12:57:52;26.60;47.40
57390;DHT22;43217;52.694;6.214;2023-06-14T13:00:18;26.50;47.50
57390;DHT22;43217;52.694;6.214;2023-06-14T13:02:43;26.40;47.50
57390;DHT22;43217;52.694;6.214;2023-06-14T13:05:09;26.20;47.20
57390;DHT22;43217;52.694;6.214;2023-06-14T13:07:35;26.20;48.00
57390;DHT22;43217;52.694;6.214;2023-06-14T13:10:01;26.20;47.90
57390;DHT22;43217;52.694;6.214;2023-06-14T13:12:26;26.20;48.20
57390;DHT22;43217;52.694;6.214;2023-06-14T13:14:52;26.20;48.70
57390;DHT22;43217;52.694;6.214;2023-06-14T13:17:18;26.20;49.10
57390;DHT22;43217;52.694;6.214;2023-06-14T13:19:44;26.20;48.90
57390;DHT22;43217;52.694;6.214;2023-06-14T13:22:10;26.20;49.20
57390;DHT22;43217;52.694;6.214;2023-06-14T13:24:36;26.30;48.90
57390;DHT22;43217;52.694;6.214;2023-06-14T13:27:02;26.30;48.30
57390;DHT22;43217;52.694;6.214;2023-06-14T13:29:27;26.30;47.80
57390;DHT22;43217;52.694;6.214;2023-06-14T13:31:54;26.20;47.50
57390;DHT22;43217;52.694;6.214;2023-06-14T13:34:19;26.20;47.90
57390;DHT22;43217;52.694;6.214;2023-06-14T13:36:45;26.20;47.60
57390;DHT22;43217;52.694;6.214;2023-06-14T13:39:11;26.10;47.80
57390;DHT22;43217;52.694;6.214;2023-06-14T13:41:37;26.00;47.80
57390;DHT22;43217;52.694;6.214;2023-06-14T13:44:03;26.00;48.50
57390;DHT22;43217;52.694;6.214;2023-06-14T13:46:31;26.00;48.50
57390;DHT22;43217;52.694;6.214;2023-06-14T13:48:57;26.10;48.40
57390;DHT22;43217;52.694;6.214;2023-06-14T13:51:23;26.10;48.30
57390;DHT22;43217;52.694;6.214;2023-06-14T13:53:49;26.20;48.20
57390;DHT22;43217;52.694;6.214;2023-06-14T13:56:16;26.10;48.10
57390;DHT22;43217;52.694;6.214;2023-06-14T13:58:42;26.10;47.90
57390;DHT22;43217;52.694;6.214;2023-06-14T14:01:08;26.20;48.00
57390;DHT22;43217;52.694;6.214;2023-06-14T14:03:34;26.20;47.90
57390;DHT22;43217;52.694;6.214;2023-06-14T14:06:01;26.10;48.00
57390;DHT22;43217;52.694;6.214;2023-06-14T14:08:27;26.10;48.50
57390;DHT22;43217;52.694;6.214;2023-06-14T14:10:53;26.10;48.90
57390;DHT22;43217;52.694;6.214;2023-06-14T14:13:21;26.10;48.40
57390;DHT22;43217;52.694;6.214;2023-06-14T14:15:46;26.00;48.30
57390;DHT22;43217;52.694;6.214;2023-06-14T14:18:12;26.00;48.40
57390;DHT22;43217;52.694;6.214;2023-06-14T14:20:37;25.90;49.00
57390;DHT22;43217;52.694;6.214;2023-06-14T14:23:03;25.90;48.70
57390;DHT22;43217;52.694;6.214;2023-06-14T14:25:30;25.90;48.30
57390;DHT22;43217;52.694;6.214;2023-06-14T14:27:55;25.90;49.00
57390;DHT22;43217;52.694;6.214;2023-06-14T14:30:21;25.90;49.30
57390;DHT22;43217;52.694;6.214;2023-06-14T14:32:49;26.10;49.30
57390;DHT22;43217;52.694;6.214;2023-06-14T14:35:17;26.10;48.70
57390;DHT22;43217;52.694;6.214;2023-06-14T14:37:43;26.20;48.70
57390;DHT22;43217;52.694;6.214;2023-06-14T14:40:08;26.20;48.80
57390;DHT22;43217;52.694;6.214;2023-06-14T14:42:36;26.20;48.80
57390;DHT22;43217;52.694;6.214;2023-06-14T14:45:01;26.20;49.40
57390;DHT22;43217;52.694;6.214;2023-06-14T14:47:27;26.30;49.20
57390;DHT22;43217;52.694;6.214;2023-06-14T14:49:53;26.30;48.70
57390;DHT22;43217;52.694;6.214;2023-06-14T14:52:18;26.30;48.50
57390;DHT22;43217;52.694;6.214;2023-06-14T14:54:44;26.30;48.80
57390;DHT22;43217;52.694;6.214;2023-06-14T14:57:09;26.40;48.50
57390;DHT22;43217;52.694;6.214;2023-06-14T14:59:36;26.30;48.50
57390;DHT22;43217;52.694;6.214;2023-06-14T15:02:02;26.30;48.60
57390;DHT22;43217;52.694;6.214;2023-06-14T15:04:31;26.40;48.30
57390;DHT22;43217;52.694;6.214;2023-06-14T15:06:57;26.40;48.50
57390;DHT22;43217;52.694;6.214;2023-06-14T15:09:22;26.40;48.40
57390;DHT22;43217;52.694;6.214;2023-06-14T15:11:48;26.40;48.40
57390;DHT22;43217;52.694;6.214;2023-06-14T15:14:14;26.50;48.50
57390;DHT22;43217;52.694;6.214;2023-06-14T15:16:40;26.40;48.10
57390;DHT22;43217;52.694;6.214;2023-06-14T15:19:06;26.40;47.90
57390;DHT22;43217;52.694;6.214;2023-06-14T15:21:31;26.40;48.10
57390;DHT22;43217;52.694;6.214;2023-06-14T15:23:57;26.40;48.70
57390;DHT22;43217;52.694;6.214;2023-06-14T15:26:23;26.40;49.00
57390;DHT22;43217;52.694;6.214;2023-06-14T15:28:50;26.50;48.90
57390;DHT22;43217;52.694;6.214;2023-06-14T15:31:15;26.60;48.50
57390;DHT22;43217;52.694;6.214;2023-06-14T15:33:41;26.60;48.40
57390;DHT22;43217;52.694;6.214;2023-06-14T15:36:07;26.50;47.90
57390;DHT22;43217;52.694;6.214;2023-06-14T15:38:35;26.30;48.20
57390;DHT22;43217;52.694;6.214;2023-06-14T15:41:01;26.30;48.40
57390;DHT22;43217;52.694;6.214;2023-06-14T15:43:26;26.40;48.10
57390;DHT22;43217;52.694;6.214;2023-06-14T15:45:52;26.30;47.90